sensor_id;sensor_type;location;lat;lon;timestamp;P1;durP1;ratioP1;P2;durP2;ratioP2
34984;SDS011;21190;58.750;17.004;2023-02-27T00:00:07;9.00;;;1.40;;
34984;SDS011;21190;58.750;17.004;2023-02-27T00:02:44;4.60;;;1.60;;
34984;SDS011;21190;58.750;17.004;2023-02-27T00:05:13;6.35;;;1.70;;
34984;SDS011;21190;58.750;17.004;2023-02-27T00:07:40;4.15;;;1.98;;
34984;SDS011;21190;58.750;17.004;2023-02-27T00:10:08;4.82;;;1.30;;
34984;SDS011;21190;58.750;17.004;2023-02-27T00:12:36;4.20;;;1.30;;
34984;SDS011;21190;58.750;17.004;2023-02-27T00:15:05;5.28;;;1.40;;
34984;SDS011;21190;58.750;17.004;2023-02-27T00:17:33;7.45;;;2.35;;
34984;SDS011;21190;58.750;17.004;2023-02-27T00:20:00;5.63;;;2.22;;
34984;SDS011;21190;58.750;17.004;2023-02-27T00:22:28;3.67;;;1.20;;
34984;SDS011;21190;58.750;17.004;2023-02-27T00:24:55;4.03;;;1.20;;
34984;SDS011;21190;58.750;17.004;2023-02-27T00:27:22;5.03;;;1.67;;
34984;SDS011;21190;58.750;17.004;2023-02-27T00:29:49;6.78;;;2.10;;
34984;SDS011;21190;58.750;17.004;2023-02-27T00:32:16;3.75;;;1.30;;
34984;SDS011;21190;58.750;17.004;2023-02-27T00:34:43;5.43;;;1.45;;
34984;SDS011;21190;58.750;17.004;2023-02-27T00:37:10;7.35;;;1.92;;
34984;SDS011;21190;58.750;17.004;2023-02-27T00:39:37;6.07;;;1.48;;
34984;SDS011;21190;58.750;17.004;2023-02-27T00:42:04;4.55;;;1.20;;
34984;SDS011;21190;58.750;17.004;2023-02-27T00:44:31;3.92;;;1.17;;
34984;SDS011;21190;58.750;17.004;2023-02-27T00:46:58;2.97;;;1.08;;
34984;SDS011;21190;58.750;17.004;2023-02-27T00:49:25;3.85;;;1.45;;
34984;SDS011;21190;58.750;17.004;2023-02-27T00:51:52;5.93;;;1.13;;
34984;SDS011;21190;58.750;17.004;2023-02-27T00:54:19;5.95;;;1.27;;
34984;SDS011;21190;58.750;17.004;2023-02-27T00:56:46;7.55;;;1.30;;
34984;SDS011;21190;58.750;17.004;2023-02-27T00:59:13;5.28;;;1.00;;
34984;SDS011;21190;58.750;17.004;2023-02-27T01:01:40;4.85;;;1.27;;
34984;SDS011;21190;58.750;17.004;2023-02-27T01:04:07;4.53;;;1.10;;
34984;SDS011;21190;58.750;17.004;2023-02-27T01:06:34;5.20;;;1.25;;
34984;SDS011;21190;58.750;17.004;2023-02-27T01:09:02;3.85;;;1.25;;
34984;SDS011;21190;58.750;17.004;2023-02-27T01:11:29;3.85;;;1.13;;
34984;SDS011;21190;58.750;17.004;2023-02-27T01:13:57;4.57;;;1.23;;
34984;SDS011;21190;58.750;17.004;2023-02-27T01:16:24;4.50;;;1.15;;
34984;SDS011;21190;58.750;17.004;2023-02-27T01:18:51;6.95;;;1.63;;
34984;SDS011;21190;58.750;17.004;2023-02-27T01:21:18;5.53;;;1.30;;
34984;SDS011;21190;58.750;17.004;2023-02-27T01:23:45;8.90;;;1.10;;
34984;SDS011;21190;58.750;17.004;2023-02-27T01:26:12;4.35;;;1.35;;
34984;SDS011;21190;58.750;17.004;2023-02-27T01:28:39;7.13;;;2.55;;
34984;SDS011;21190;58.750;17.004;2023-02-27T01:31:06;1.67;;;0.98;;
34984;SDS011;21190;58.750;17.004;2023-02-27T01:33:34;5.97;;;1.30;;
34984;SDS011;21190;58.750;17.004;2023-02-27T01:36:01;6.55;;;1.95;;
34984;SDS011;21190;58.750;17.004;2023-02-27T01:38:28;1.73;;;1.00;;
34984;SDS011;21190;58.750;17.004;2023-02-27T01:40:55;5.03;;;1.15;;
34984;SDS011;21190;58.750;17.004;2023-02-27T01:43:22;5.70;;;1.05;;
34984;SDS011;21190;58.750;17.004;2023-02-27T01:45:49;3.15;;;1.30;;
34984;SDS011;21190;58.750;17.004;2023-02-27T01:48:21;7.30;;;2.78;;
34984;SDS011;21190;58.750;17.004;2023-02-27T01:50:53;5.40;;;2.67;;
34984;SDS011;21190;58.750;17.004;2023-02-27T01:53:25;5.20;;;2.65;;
34984;SDS011;21190;58.750;17.004;2023-02-27T01:55:54;8.20;;;2.72;;
34984;SDS011;21190;58.750;17.004;2023-02-27T01:58:27;4.82;;;2.25;;
34984;SDS011;21190;58.750;17.004;2023-02-27T02:00:54;4.07;;;1.80;;
34984;SDS011;21190;58.750;17.004;2023-02-27T02:03:45;3.80;;;2.15;;
34984;SDS011;21190;58.750;17.004;2023-02-27T02:06:28;9.88;;;3.35;;
34984;SDS011;21190;58.750;17.004;2023-02-27T02:08:57;8.40;;;4.05;;
34984;SDS011;21190;58.750;17.004;2023-02-27T02:11:26;8.13;;;3.10;;
34984;SDS011;21190;58.750;17.004;2023-02-27T02:13:55;10.57;;;2.88;;
34984;SDS011;21190;58.750;17.004;2023-02-27T02:16:43;12.15;;;3.60;;
34984;SDS011;21190;58.750;17.004;2023-02-27T02:30:48;6.35;;;1.63;;
34984;SDS011;21190;58.750;17.004;2023-02-27T02:42:15;3.50;;;1.40;;
34984;SDS011;21190;58.750;17.004;2023-02-27T02:45:12;6.55;;;1.30;;
34984;SDS011;21190;58.750;17.004;2023-02-27T02:53:08;2.08;;;0.98;;
34984;SDS011;21190;58.750;17.004;2023-02-27T02:56:04;5.85;;;1.10;;
34984;SDS011;21190;58.750;17.004;2023-02-27T02:58:36;8.20;;;1.40;;
34984;SDS011;21190;58.750;17.004;2023-02-27T03:01:23;6.13;;;1.10;;
34984;SDS011;21190;58.750;17.004;2023-02-27T03:04:26;5.63;;;1.30;;
34984;SDS011;21190;58.750;17.004;2023-02-27T03:07:06;4.13;;;1.45;;
34984;SDS011;21190;58.750;17.004;2023-02-27T03:09:52;4.60;;;1.20;;
34984;SDS011;21190;58.750;17.004;2023-02-27T03:12:23;4.90;;;2.00;;
34984;SDS011;21190;58.750;17.004;2023-02-27T03:14:58;3.40;;;1.40;;
34984;SDS011;21190;58.750;17.004;2023-02-27T03:17:42;7.28;;;1.50;;
34984;SDS011;21190;58.750;17.004;2023-02-27T03:20:32;3.22;;;1.23;;
34984;SDS011;21190;58.750;17.004;2023-02-27T03:23:07;5.82;;;1.13;;
34984;SDS011;21190;58.750;17.004;2023-02-27T03:25:38;4.47;;;1.02;;
34984;SDS011;21190;58.750;17.004;2023-02-27T03:28:16;8.13;;;1.67;;
34984;SDS011;21190;58.750;17.004;2023-02-27T03:30:54;3.22;;;1.55;;
34984;SDS011;21190;58.750;17.004;2023-02-27T03:33:30;5.63;;;1.90;;
34984;SDS011;21190;58.750;17.004;2023-02-27T03:36:07;4.28;;;1.90;;
34984;SDS011;21190;58.750;17.004;2023-02-27T03:38:47;6.43;;;1.98;;
34984;SDS011;21190;58.750;17.004;2023-02-27T03:41:29;2.05;;;1.35;;
34984;SDS011;21190;58.750;17.004;2023-02-27T03:47:04;6.38;;;1.42;;
34984;SDS011;21190;58.750;17.004;2023-02-27T03:49:30;5.38;;;1.73;;
34984;SDS011;21190;58.750;17.004;2023-02-27T03:51:57;7.53;;;1.55;;
34984;SDS011;21190;58.750;17.004;2023-02-27T03:54:26;4.82;;;1.48;;
34984;SDS011;21190;58.750;17.004;2023-02-27T03:56:59;6.05;;;1.38;;
34984;SDS011;21190;58.750;17.004;2023-02-27T03:59:27;5.20;;;1.20;;
34984;SDS011;21190;58.750;17.004;2023-02-27T04:01:56;7.72;;;1.42;;
34984;SDS011;21190;58.750;17.004;2023-02-27T04:04:24;5.03;;;1.33;;
34984;SDS011;21190;58.750;17.004;2023-02-27T04:06:57;3.60;;;1.20;;
34984;SDS011;21190;58.750;17.004;2023-02-27T04:15:45;4.60;;;1.45;;
34984;SDS011;21190;58.750;17.004;2023-02-27T04:21:33;4.82;;;1.10;;
34984;SDS011;21190;58.750;17.004;2023-02-27T04:32:29;4.65;;;1.45;;
34984;SDS011;21190;58.750;17.004;2023-02-27T04:35:06;1.88;;;1.08;;
34984;SDS011;21190;58.750;17.004;2023-02-27T04:37:43;4.88;;;1.10;;
34984;SDS011;21190;58.750;17.004;2023-02-27T04:40:23;2.75;;;1.35;;
34984;SDS011;21190;58.750;17.004;2023-02-27T04:42:55;3.67;;;1.00;;
34984;SDS011;21190;58.750;17.004;2023-02-27T04:45:26;11.55;;;1.50;;
34984;SDS011;21190;58.750;17.004;2023-02-27T04:47:59;4.68;;;1.40;;
34984;SDS011;21190;58.750;17.004;2023-02-27T04:50:36;5.15;;;1.27;;
34984;SDS011;21190;58.750;17.004;2023-02-27T04:53:19;5.10;;;1.02;;
34984;SDS011;21190;58.750;17.004;2023-02-27T04:56:04;2.47;;;0.90;;
34984;SDS011;21190;58.750;17.004;2023-02-27T04:58:37;4.45;;;1.30;;
34984;SDS011;21190;58.750;17.004;2023-02-27T05:01:09;5.13;;;1.20;;
34984;SDS011;21190;58.750;17.004;2023-02-27T05:03:43;6.70;;;1.08;;
34984;SDS011;21190;58.750;17.004;2023-02-27T05:06:13;5.22;;;1.70;;
34984;SDS011;21190;58.750;17.004;2023-02-27T05:08:44;2.05;;;1.10;;
34984;SDS011;21190;58.750;17.004;2023-02-27T05:14:08;3.55;;;1.27;;
34984;SDS011;21190;58.750;17.004;2023-02-27T05:17:17;5.18;;;1.30;;
34984;SDS011;21190;58.750;17.004;2023-02-27T05:19:46;3.22;;;1.40;;
34984;SDS011;21190;58.750;17.004;2023-02-27T05:22:32;3.38;;;1.02;;
34984;SDS011;21190;58.750;17.004;2023-02-27T05:27:46;3.47;;;1.20;;
34984;SDS011;21190;58.750;17.004;2023-02-27T05:33:12;2.33;;;1.00;;
34984;SDS011;21190;58.750;17.004;2023-02-27T05:35:50;6.40;;;1.05;;
34984;SDS011;21190;58.750;17.004;2023-02-27T05:38:24;1.83;;;1.20;;
34984;SDS011;21190;58.750;17.004;2023-02-27T05:41:01;7.38;;;1.55;;
34984;SDS011;21190;58.750;17.004;2023-02-27T05:43:48;14.30;;;1.73;;
34984;SDS011;21190;58.750;17.004;2023-02-27T05:46:20;3.50;;;1.63;;
34984;SDS011;21190;58.750;17.004;2023-02-27T05:48:59;8.10;;;3.88;;
34984;SDS011;21190;58.750;17.004;2023-02-27T05:51:31;5.43;;;1.20;;
34984;SDS011;21190;58.750;17.004;2023-02-27T05:54:12;2.42;;;1.23;;
34984;SDS011;21190;58.750;17.004;2023-02-27T05:56:48;5.40;;;1.38;;
34984;SDS011;21190;58.750;17.004;2023-02-27T05:59:27;3.22;;;1.40;;
34984;SDS011;21190;58.750;17.004;2023-02-27T06:01:59;5.32;;;1.70;;
34984;SDS011;21190;58.750;17.004;2023-02-27T06:04:27;5.32;;;1.50;;
34984;SDS011;21190;58.750;17.004;2023-02-27T06:06:54;2.95;;;1.30;;
34984;SDS011;21190;58.750;17.004;2023-02-27T06:09:22;5.15;;;1.30;;
34984;SDS011;21190;58.750;17.004;2023-02-27T06:11:49;11.48;;;1.48;;
34984;SDS011;21190;58.750;17.004;2023-02-27T06:14:16;3.63;;;1.50;;
34984;SDS011;21190;58.750;17.004;2023-02-27T06:16:43;5.53;;;1.15;;
34984;SDS011;21190;58.750;17.004;2023-02-27T06:19:10;9.77;;;1.30;;
34984;SDS011;21190;58.750;17.004;2023-02-27T06:21:37;4.75;;;1.05;;
34984;SDS011;21190;58.750;17.004;2023-02-27T06:24:04;12.07;;;2.13;;
34984;SDS011;21190;58.750;17.004;2023-02-27T06:26:31;5.05;;;1.30;;
34984;SDS011;21190;58.750;17.004;2023-02-27T06:28:58;8.77;;;1.42;;
34984;SDS011;21190;58.750;17.004;2023-02-27T06:31:25;2.08;;;1.10;;
34984;SDS011;21190;58.750;17.004;2023-02-27T06:33:52;3.78;;;1.00;;
34984;SDS011;21190;58.750;17.004;2023-02-27T06:36:20;2.03;;;1.20;;
34984;SDS011;21190;58.750;17.004;2023-02-27T06:38:48;3.00;;;1.05;;
34984;SDS011;21190;58.750;17.004;2023-02-27T06:41:15;6.43;;;1.48;;
34984;SDS011;21190;58.750;17.004;2023-02-27T06:43:42;5.85;;;1.15;;
34984;SDS011;21190;58.750;17.004;2023-02-27T06:46:09;5.00;;;1.30;;
34984;SDS011;21190;58.750;17.004;2023-02-27T06:48:36;7.30;;;1.77;;
34984;SDS011;21190;58.750;17.004;2023-02-27T06:51:04;9.05;;;1.80;;
34984;SDS011;21190;58.750;17.004;2023-02-27T06:53:31;5.72;;;1.58;;
34984;SDS011;21190;58.750;17.004;2023-02-27T06:55:58;2.78;;;1.15;;
34984;SDS011;21190;58.750;17.004;2023-02-27T06:58:25;4.38;;;1.23;;
34984;SDS011;21190;58.750;17.004;2023-02-27T07:00:52;3.28;;;1.10;;
34984;SDS011;21190;58.750;17.004;2023-02-27T07:03:19;2.42;;;1.08;;
34984;SDS011;21190;58.750;17.004;2023-02-27T07:05:46;5.10;;;1.42;;
34984;SDS011;21190;58.750;17.004;2023-02-27T07:08:13;6.95;;;1.45;;
34984;SDS011;21190;58.750;17.004;2023-02-27T07:10:43;4.72;;;1.30;;
34984;SDS011;21190;58.750;17.004;2023-02-27T07:13:12;2.42;;;1.20;;
34984;SDS011;21190;58.750;17.004;2023-02-27T07:15:44;6.88;;;1.10;;
34984;SDS011;21190;58.750;17.004;2023-02-27T07:18:11;5.57;;;1.40;;
34984;SDS011;21190;58.750;17.004;2023-02-27T07:20:38;4.95;;;1.23;;
34984;SDS011;21190;58.750;17.004;2023-02-27T07:23:05;3.53;;;1.70;;
34984;SDS011;21190;58.750;17.004;2023-02-27T07:25:32;2.92;;;1.70;;
34984;SDS011;21190;58.750;17.004;2023-02-27T07:27:59;5.57;;;1.67;;
34984;SDS011;21190;58.750;17.004;2023-02-27T07:30:27;2.42;;;1.60;;
34984;SDS011;21190;58.750;17.004;2023-02-27T07:32:56;5.30;;;1.50;;
34984;SDS011;21190;58.750;17.004;2023-02-27T07:35:23;4.78;;;1.23;;
34984;SDS011;21190;58.750;17.004;2023-02-27T07:37:50;2.75;;;1.08;;
34984;SDS011;21190;58.750;17.004;2023-02-27T07:40:17;4.03;;;1.50;;
34984;SDS011;21190;58.750;17.004;2023-02-27T07:42:45;7.10;;;1.45;;
34984;SDS011;21190;58.750;17.004;2023-02-27T07:45:13;3.33;;;1.50;;
34984;SDS011;21190;58.750;17.004;2023-02-27T07:47:44;4.45;;;2.03;;
34984;SDS011;21190;58.750;17.004;2023-02-27T07:50:12;2.17;;;1.52;;
34984;SDS011;21190;58.750;17.004;2023-02-27T07:52:40;5.28;;;1.02;;
34984;SDS011;21190;58.750;17.004;2023-02-27T07:55:07;3.55;;;1.38;;
34984;SDS011;21190;58.750;17.004;2023-02-27T07:57:36;4.30;;;1.00;;
34984;SDS011;21190;58.750;17.004;2023-02-27T08:00:04;1.05;;;0.73;;
34984;SDS011;21190;58.750;17.004;2023-02-27T08:02:35;2.22;;;1.42;;
34984;SDS011;21190;58.750;17.004;2023-02-27T08:05:02;2.30;;;1.05;;
34984;SDS011;21190;58.750;17.004;2023-02-27T08:07:30;1.20;;;0.65;;
34984;SDS011;21190;58.750;17.004;2023-02-27T08:09:57;3.22;;;0.98;;
34984;SDS011;21190;58.750;17.004;2023-02-27T08:12:24;3.80;;;1.15;;
34984;SDS011;21190;58.750;17.004;2023-02-27T08:14:51;4.57;;;1.00;;
34984;SDS011;21190;58.750;17.004;2023-02-27T08:17:18;3.53;;;0.80;;
34984;SDS011;21190;58.750;17.004;2023-02-27T08:19:45;1.80;;;1.05;;
34984;SDS011;21190;58.750;17.004;2023-02-27T08:22:12;4.82;;;0.98;;
34984;SDS011;21190;58.750;17.004;2023-02-27T08:24:39;1.40;;;0.80;;
34984;SDS011;21190;58.750;17.004;2023-02-27T08:27:06;1.42;;;0.95;;
34984;SDS011;21190;58.750;17.004;2023-02-27T08:29:33;1.55;;;1.15;;
34984;SDS011;21190;58.750;17.004;2023-02-27T08:32:00;7.10;;;1.42;;
34984;SDS011;21190;58.750;17.004;2023-02-27T08:34:31;1.80;;;0.95;;
34984;SDS011;21190;58.750;17.004;2023-02-27T08:36:58;1.80;;;1.00;;
34984;SDS011;21190;58.750;17.004;2023-02-27T08:39:25;7.13;;;0.88;;
34984;SDS011;21190;58.750;17.004;2023-02-27T08:41:52;3.08;;;1.02;;
34984;SDS011;21190;58.750;17.004;2023-02-27T08:44:19;3.25;;;0.85;;
34984;SDS011;21190;58.750;17.004;2023-02-27T08:46:46;3.30;;;0.93;;
34984;SDS011;21190;58.750;17.004;2023-02-27T08:49:13;5.15;;;1.00;;
34984;SDS011;21190;58.750;17.004;2023-02-27T08:51:40;3.13;;;0.80;;
34984;SDS011;21190;58.750;17.004;2023-02-27T08:54:07;1.23;;;0.68;;
34984;SDS011;21190;58.750;17.004;2023-02-27T08:56:34;1.00;;;0.80;;
34984;SDS011;21190;58.750;17.004;2023-02-27T08:59:01;3.53;;;0.90;;
34984;SDS011;21190;58.750;17.004;2023-02-27T09:01:28;1.27;;;0.63;;
34984;SDS011;21190;58.750;17.004;2023-02-27T09:04:00;0.80;;;0.60;;
34984;SDS011;21190;58.750;17.004;2023-02-27T09:06:28;1.60;;;0.68;;
34984;SDS011;21190;58.750;17.004;2023-02-27T09:08:56;1.20;;;0.98;;
34984;SDS011;21190;58.750;17.004;2023-02-27T09:11:24;0.95;;;0.55;;
34984;SDS011;21190;58.750;17.004;2023-02-27T09:13:53;0.90;;;0.50;;
34984;SDS011;21190;58.750;17.004;2023-02-27T09:16:21;1.60;;;0.60;;
34984;SDS011;21190;58.750;17.004;2023-02-27T09:18:48;2.03;;;0.70;;
34984;SDS011;21190;58.750;17.004;2023-02-27T09:21:15;1.00;;;0.57;;
34984;SDS011;21190;58.750;17.004;2023-02-27T09:23:43;0.82;;;0.60;;
34984;SDS011;21190;58.750;17.004;2023-02-27T09:26:10;1.55;;;0.60;;
34984;SDS011;21190;58.750;17.004;2023-02-27T09:28:37;1.70;;;0.60;;
34984;SDS011;21190;58.750;17.004;2023-02-27T09:31:06;0.65;;;0.60;;
34984;SDS011;21190;58.750;17.004;2023-02-27T09:33:35;2.92;;;0.93;;
34984;SDS011;21190;58.750;17.004;2023-02-27T09:36:04;2.85;;;0.60;;
34984;SDS011;21190;58.750;17.004;2023-02-27T09:38:32;7.93;;;0.55;;
34984;SDS011;21190;58.750;17.004;2023-02-27T09:41:00;1.70;;;0.60;;
34984;SDS011;21190;58.750;17.004;2023-02-27T09:43:36;1.88;;;0.40;;
34984;SDS011;21190;58.750;17.004;2023-02-27T09:46:08;0.45;;;0.35;;
34984;SDS011;21190;58.750;17.004;2023-02-27T09:48:44;0.65;;;0.40;;
34984;SDS011;21190;58.750;17.004;2023-02-27T09:51:23;0.75;;;0.30;;
34984;SDS011;21190;58.750;17.004;2023-02-27T09:53:53;1.58;;;0.50;;
34984;SDS011;21190;58.750;17.004;2023-02-27T09:56:24;0.68;;;0.32;;
34984;SDS011;21190;58.750;17.004;2023-02-27T10:04:51;0.77;;;0.40;;
34984;SDS011;21190;58.750;17.004;2023-02-27T10:07:31;0.88;;;0.40;;
34984;SDS011;21190;58.750;17.004;2023-02-27T10:18:04;2.67;;;0.75;;
34984;SDS011;21190;58.750;17.004;2023-02-27T10:20:54;0.93;;;0.50;;
34984;SDS011;21190;58.750;17.004;2023-02-27T10:23:39;1.85;;;0.70;;
34984;SDS011;21190;58.750;17.004;2023-02-27T10:26:07;2.40;;;0.55;;
34984;SDS011;21190;58.750;17.004;2023-02-27T10:28:44;0.65;;;0.40;;
34984;SDS011;21190;58.750;17.004;2023-02-27T10:31:15;3.05;;;0.30;;
34984;SDS011;21190;58.750;17.004;2023-02-27T10:33:46;0.65;;;0.32;;
34984;SDS011;21190;58.750;17.004;2023-02-27T10:36:14;1.02;;;0.43;;
34984;SDS011;21190;58.750;17.004;2023-02-27T10:39:00;1.20;;;0.40;;
34984;SDS011;21190;58.750;17.004;2023-02-27T10:41:33;2.97;;;0.85;;
34984;SDS011;21190;58.750;17.004;2023-02-27T10:44:01;2.40;;;1.27;;
34984;SDS011;21190;58.750;17.004;2023-02-27T10:46:29;52.08;;;3.22;;
34984;SDS011;21190;58.750;17.004;2023-02-27T10:49:01;1.73;;;0.60;;
34984;SDS011;21190;58.750;17.004;2023-02-27T10:54:22;0.95;;;0.50;;
34984;SDS011;21190;58.750;17.004;2023-02-27T10:56:54;3.13;;;0.75;;
34984;SDS011;21190;58.750;17.004;2023-02-27T10:59:26;3.65;;;1.02;;
34984;SDS011;21190;58.750;17.004;2023-02-27T11:01:59;1.30;;;0.82;;
34984;SDS011;21190;58.750;17.004;2023-02-27T11:04:37;1.60;;;0.30;;
34984;SDS011;21190;58.750;17.004;2023-02-27T11:07:08;0.52;;;0.20;;
34984;SDS011;21190;58.750;17.004;2023-02-27T11:09:37;4.68;;;0.88;;
34984;SDS011;21190;58.750;17.004;2023-02-27T11:14:53;0.15;;;0.15;;
34984;SDS011;21190;58.750;17.004;2023-02-27T11:17:23;1.60;;;0.60;;
34984;SDS011;21190;58.750;17.004;2023-02-27T11:20:01;0.85;;;0.45;;
34984;SDS011;21190;58.750;17.004;2023-02-27T11:22:32;0.28;;;0.22;;
34984;SDS011;21190;58.750;17.004;2023-02-27T11:27:49;0.35;;;0.22;;
34984;SDS011;21190;58.750;17.004;2023-02-27T11:30:25;0.85;;;0.40;;
34984;SDS011;21190;58.750;17.004;2023-02-27T11:32:54;0.30;;;0.30;;
34984;SDS011;21190;58.750;17.004;2023-02-27T11:37:58;1.80;;;0.60;;
34984;SDS011;21190;58.750;17.004;2023-02-27T11:40:31;0.98;;;0.30;;
34984;SDS011;21190;58.750;17.004;2023-02-27T11:43:13;0.28;;;0.20;;
34984;SDS011;21190;58.750;17.004;2023-02-27T11:45:50;4.68;;;1.88;;
34984;SDS011;21190;58.750;17.004;2023-02-27T12:02:27;2.45;;;1.23;;
34984;SDS011;21190;58.750;17.004;2023-02-27T12:05:11;1.30;;;0.70;;
34984;SDS011;21190;58.750;17.004;2023-02-27T12:07:47;5.45;;;0.88;;
34984;SDS011;21190;58.750;17.004;2023-02-27T12:10:29;3.75;;;0.25;;
34984;SDS011;21190;58.750;17.004;2023-02-27T12:13:05;1.52;;;0.35;;
34984;SDS011;21190;58.750;17.004;2023-02-27T12:15:57;1.75;;;0.40;;
34984;SDS011;21190;58.750;17.004;2023-02-27T12:18:30;0.45;;;0.20;;
34984;SDS011;21190;58.750;17.004;2023-02-27T12:21:12;0.32;;;0.20;;
34984;SDS011;21190;58.750;17.004;2023-02-27T12:26:38;2.67;;;0.60;;
34984;SDS011;21190;58.750;17.004;2023-02-27T12:29:24;6.80;;;0.57;;
34984;SDS011;21190;58.750;17.004;2023-02-27T12:32:01;0.73;;;0.30;;
34984;SDS011;21190;58.750;17.004;2023-02-27T12:34:41;3.10;;;0.70;;
34984;SDS011;21190;58.750;17.004;2023-02-27T12:37:10;0.60;;;0.60;;
34984;SDS011;21190;58.750;17.004;2023-02-27T12:39:41;3.53;;;0.70;;
34984;SDS011;21190;58.750;17.004;2023-02-27T12:42:14;8.65;;;0.52;;
34984;SDS011;21190;58.750;17.004;2023-02-27T12:55:11;7.32;;;0.50;;
34984;SDS011;21190;58.750;17.004;2023-02-27T13:00:45;6.05;;;0.90;;
34984;SDS011;21190;58.750;17.004;2023-02-27T13:05:54;3.80;;;0.60;;
34984;SDS011;21190;58.750;17.004;2023-02-27T13:13:45;6.93;;;0.80;;
34984;SDS011;21190;58.750;17.004;2023-02-27T13:16:20;0.80;;;0.43;;
34984;SDS011;21190;58.750;17.004;2023-02-27T13:18:56;8.10;;;0.93;;
34984;SDS011;21190;58.750;17.004;2023-02-27T13:21:31;8.32;;;0.50;;
34984;SDS011;21190;58.750;17.004;2023-02-27T13:29:32;6.95;;;0.68;;
34984;SDS011;21190;58.750;17.004;2023-02-27T13:32:40;4.45;;;1.20;;
34984;SDS011;21190;58.750;17.004;2023-02-27T13:37:56;1.15;;;0.30;;
34984;SDS011;21190;58.750;17.004;2023-02-27T13:43:04;0.82;;;0.28;;
34984;SDS011;21190;58.750;17.004;2023-02-27T13:45:56;1.55;;;0.22;;
34984;SDS011;21190;58.750;17.004;2023-02-27T13:48:47;1.10;;;0.13;;
34984;SDS011;21190;58.750;17.004;2023-02-27T13:56:46;2.28;;;0.30;;
34984;SDS011;21190;58.750;17.004;2023-02-27T14:01:52;3.03;;;0.10;;
34984;SDS011;21190;58.750;17.004;2023-02-27T14:04:26;5.57;;;0.30;;
34984;SDS011;21190;58.750;17.004;2023-02-27T14:07:04;3.45;;;0.30;;
34984;SDS011;21190;58.750;17.004;2023-02-27T14:09:35;2.28;;;0.30;;
34984;SDS011;21190;58.750;17.004;2023-02-27T14:12:05;1.05;;;0.43;;
34984;SDS011;21190;58.750;17.004;2023-02-27T14:14:56;5.30;;;0.30;;
34984;SDS011;21190;58.750;17.004;2023-02-27T14:23:08;5.03;;;0.40;;
34984;SDS011;21190;58.750;17.004;2023-02-27T14:25:45;0.63;;;0.40;;
34984;SDS011;21190;58.750;17.004;2023-02-27T14:28:18;4.20;;;0.52;;
34984;SDS011;21190;58.750;17.004;2023-02-27T14:30:56;1.83;;;0.40;;
34984;SDS011;21190;58.750;17.004;2023-02-27T14:33:28;1.65;;;0.32;;
34984;SDS011;21190;58.750;17.004;2023-02-27T14:36:21;3.40;;;0.30;;
34984;SDS011;21190;58.750;17.004;2023-02-27T14:38:52;1.45;;;0.40;;
34984;SDS011;21190;58.750;17.004;2023-02-27T14:41:40;1.48;;;0.47;;
34984;SDS011;21190;58.750;17.004;2023-02-27T14:44:44;3.47;;;0.40;;
34984;SDS011;21190;58.750;17.004;2023-02-27T14:47:19;9.52;;;0.50;;
34984;SDS011;21190;58.750;17.004;2023-02-27T14:49:52;4.28;;;0.32;;
34984;SDS011;21190;58.750;17.004;2023-02-27T14:54:56;0.47;;;0.30;;
34984;SDS011;21190;58.750;17.004;2023-02-27T14:57:32;0.20;;;0.20;;
34984;SDS011;21190;58.750;17.004;2023-02-27T14:59:59;4.03;;;0.50;;
34984;SDS011;21190;58.750;17.004;2023-02-27T15:02:27;1.50;;;0.38;;
34984;SDS011;21190;58.750;17.004;2023-02-27T15:07:30;2.30;;;0.73;;
34984;SDS011;21190;58.750;17.004;2023-02-27T15:09:59;2.17;;;0.50;;
34984;SDS011;21190;58.750;17.004;2023-02-27T15:12:30;2.65;;;0.60;;
34984;SDS011;21190;58.750;17.004;2023-02-27T15:15:03;2.33;;;0.47;;
34984;SDS011;21190;58.750;17.004;2023-02-27T15:17:37;2.60;;;0.40;;
34984;SDS011;21190;58.750;17.004;2023-02-27T15:22:52;4.78;;;0.70;;
34984;SDS011;21190;58.750;17.004;2023-02-27T15:25:35;5.63;;;0.70;;
34984;SDS011;21190;58.750;17.004;2023-02-27T15:28:05;5.47;;;0.57;;
34984;SDS011;21190;58.750;17.004;2023-02-27T15:30:46;5.57;;;0.57;;
34984;SDS011;21190;58.750;17.004;2023-02-27T15:33:14;4.50;;;0.70;;
34984;SDS011;21190;58.750;17.004;2023-02-27T15:35:43;0.60;;;0.40;;
34984;SDS011;21190;58.750;17.004;2023-02-27T15:41:01;5.15;;;0.70;;
34984;SDS011;21190;58.750;17.004;2023-02-27T15:43:29;2.53;;;0.60;;
34984;SDS011;21190;58.750;17.004;2023-02-27T15:45:57;4.55;;;0.75;;
34984;SDS011;21190;58.750;17.004;2023-02-27T15:48:24;4.97;;;0.80;;
34984;SDS011;21190;58.750;17.004;2023-02-27T15:50:52;3.92;;;0.55;;
34984;SDS011;21190;58.750;17.004;2023-02-27T15:53:26;6.40;;;0.80;;
34984;SDS011;21190;58.750;17.004;2023-02-27T15:55:56;15.50;;;1.73;;
34984;SDS011;21190;58.750;17.004;2023-02-27T15:58:26;7.82;;;1.30;;
34984;SDS011;21190;58.750;17.004;2023-02-27T16:01:02;11.60;;;1.30;;
34984;SDS011;21190;58.750;17.004;2023-02-27T16:03:36;11.45;;;1.55;;
34984;SDS011;21190;58.750;17.004;2023-02-27T16:06:17;15.68;;;2.20;;
34984;SDS011;21190;58.750;17.004;2023-02-27T16:08:49;5.10;;;1.27;;
34984;SDS011;21190;58.750;17.004;2023-02-27T16:11:28;12.05;;;1.98;;
34984;SDS011;21190;58.750;17.004;2023-02-27T16:14:00;17.23;;;1.60;;
34984;SDS011;21190;58.750;17.004;2023-02-27T16:19:12;13.07;;;1.35;;
34984;SDS011;21190;58.750;17.004;2023-02-27T16:24:39;10.10;;;1.08;;
34984;SDS011;21190;58.750;17.004;2023-02-27T16:27:16;6.43;;;1.23;;
34984;SDS011;21190;58.750;17.004;2023-02-27T16:29:49;4.30;;;1.08;;
34984;SDS011;21190;58.750;17.004;2023-02-27T16:32:26;11.52;;;1.40;;
34984;SDS011;21190;58.750;17.004;2023-02-27T16:35:02;12.35;;;1.17;;
34984;SDS011;21190;58.750;17.004;2023-02-27T16:37:35;8.40;;;0.80;;
34984;SDS011;21190;58.750;17.004;2023-02-27T16:40:14;3.78;;;0.70;;
34984;SDS011;21190;58.750;17.004;2023-02-27T16:42:45;5.22;;;1.48;;
34984;SDS011;21190;58.750;17.004;2023-02-27T16:45:16;5.50;;;0.88;;
34984;SDS011;21190;58.750;17.004;2023-02-27T16:47:47;7.22;;;1.35;;
34984;SDS011;21190;58.750;17.004;2023-02-27T16:50:26;13.48;;;2.10;;
34984;SDS011;21190;58.750;17.004;2023-02-27T16:52:55;8.77;;;1.35;;
34984;SDS011;21190;58.750;17.004;2023-02-27T16:55:23;12.95;;;1.75;;
34984;SDS011;21190;58.750;17.004;2023-02-27T16:57:51;11.32;;;1.63;;
34984;SDS011;21190;58.750;17.004;2023-02-27T17:00:18;6.55;;;1.50;;
34984;SDS011;21190;58.750;17.004;2023-02-27T17:02:47;5.40;;;1.42;;
34984;SDS011;21190;58.750;17.004;2023-02-27T17:05:15;10.45;;;2.17;;
34984;SDS011;21190;58.750;17.004;2023-02-27T17:07:43;6.30;;;1.60;;
34984;SDS011;21190;58.750;17.004;2023-02-27T17:10:13;10.18;;;2.05;;
34984;SDS011;21190;58.750;17.004;2023-02-27T17:12:47;10.73;;;1.88;;
34984;SDS011;21190;58.750;17.004;2023-02-27T17:15:14;12.52;;;1.63;;
34984;SDS011;21190;58.750;17.004;2023-02-27T17:17:42;13.15;;;2.13;;
34984;SDS011;21190;58.750;17.004;2023-02-27T17:20:11;9.65;;;1.60;;
34984;SDS011;21190;58.750;17.004;2023-02-27T17:22:40;8.25;;;1.73;;
34984;SDS011;21190;58.750;17.004;2023-02-27T17:25:08;6.53;;;1.60;;
34984;SDS011;21190;58.750;17.004;2023-02-27T17:27:36;9.88;;;2.15;;
34984;SDS011;21190;58.750;17.004;2023-02-27T17:30:04;12.63;;;2.67;;
34984;SDS011;21190;58.750;17.004;2023-02-27T17:32:32;6.50;;;2.05;;
34984;SDS011;21190;58.750;17.004;2023-02-27T17:35:00;17.05;;;3.30;;
34984;SDS011;21190;58.750;17.004;2023-02-27T17:37:27;25.38;;;5.45;;
34984;SDS011;21190;58.750;17.004;2023-02-27T17:39:54;13.60;;;3.15;;